Time;durP1;ratioP1;P1;durP2;ratioP2;P2;SDS_P1;SDS_P2;PMS_P1;PMS_P2;Temp;Humidity;BMP_temperature;BMP_pressure;BME280_temperature;BME280_humidity;BME280_pressure;Samples;Min_cycle;Max_cycle;Signal;HPM_P1;HPM_P2
2023/04/09 00:01:45;;;;;;;43.08;20.35;;;;;;;6.53;92.63;102811.31;6102319;19;19999;-78
2023/04/09 00:03:50;;;;;;;40.15;20.45;;;;;;;6.52;92.43;102812.13;6099977;19;20111;-78
2023/04/09 00:05:55;;;;;;;41.90;20.67;;;;;;;6.55;92.32;102814.78;6101383;19;20018;-78
2023/04/09 00:08:00;;;;;;;44.88;21.27;;;;;;;6.54;92.58;102820.00;6103922;19;20015;-79
2023/04/09 00:10:06;;;;;;;43.22;21.80;;;;;;;6.50;92.25;102816.50;6103777;19;20016;-78
2023/04/09 00:12:12;;;;;;;39.47;19.65;;;;;;;6.49;92.43;102816.47;6104310;19;20537;-77
2023/04/09 00:14:17;;;;;;;46.78;21.55;;;;;;;6.52;92.47;102814.75;6105261;19;20531;-77
2023/04/09 00:16:24;;;;;;;47.22;22.80;;;;;;;6.51;92.33;102820.84;6103395;19;20053;-77
2023/04/09 00:18:29;;;;;;;47.97;21.38;;;;;;;6.50;92.59;102818.22;6103483;19;20484;-78
2023/04/09 00:20:35;;;;;;;42.67;22.15;;;;;;;6.51;93.20;102815.63;6103814;19;20644;-78
2023/04/09 00:22:40;;;;;;;46.72;22.67;;;;;;;6.54;92.84;102820.88;6100999;19;20149;-78
2023/04/09 00:24:46;;;;;;;51.03;22.52;;;;;;;6.53;92.89;102811.31;6103978;19;20019;-77
2023/04/09 00:26:52;;;;;;;51.53;22.55;;;;;;;6.55;93.03;102813.91;6096808;19;20023;-78
2023/04/09 00:28:57;;;;;;;43.92;22.23;;;;;;;6.53;93.31;102819.13;6101504;19;20423;-78
2023/04/09 00:31:02;;;;;;;51.72;22.95;;;;;;;6.52;92.83;102809.53;6101414;19;20380;-78
2023/04/09 00:33:09;;;;;;;44.88;22.25;;;;;;;6.52;93.10;102811.28;6102148;19;20002;-78
2023/04/09 00:35:16;;;;;;;51.97;21.88;;;;;;;6.52;93.01;102806.91;6096840;19;20003;-78
2023/04/09 00:37:21;;;;;;;48.53;23.70;;;;;;;6.52;93.49;102806.06;6103112;19;20014;-77
2023/04/09 00:39:26;;;;;;;52.28;24.83;;;;;;;6.54;93.25;102815.66;6104087;19;20011;-78
2023/04/09 00:41:31;;;;;;;48.50;24.05;;;;;;;6.52;93.76;102806.06;6096832;19;20266;-78
2023/04/09 00:43:39;;;;;;;51.15;25.48;;;;;;;6.45;94.03;102802.53;6103281;19;20010;-78
2023/04/09 00:45:45;;;;;;;52.92;23.05;;;;;;;6.45;93.44;102799.00;6101777;19;20010;-79
2023/04/09 00:47:51;;;;;;;56.53;25.00;;;;;;;6.45;93.80;102797.31;6103032;19;20015;-78
2023/04/09 00:49:59;;;;;;;51.00;23.70;;;;;;;6.42;94.04;102802.47;6101756;19;20029;-78
2023/04/09 00:52:04;;;;;;;55.40;24.70;;;;;;;6.35;93.78;102792.88;6102006;19;20090;-78
2023/04/09 00:54:09;;;;;;;51.85;23.98;;;;;;;6.32;93.50;102792.84;6100398;19;20007;-78
2023/04/09 00:56:18;;;;;;;50.70;21.52;;;;;;;6.28;92.99;102796.28;6105872;19;20060;-78
2023/04/09 00:58:23;;;;;;;46.75;21.13;;;;;;;6.23;92.92;102790.13;6104530;19;20487;-78
2023/04/09 01:00:31;;;;;;;48.85;22.27;;;;;;;6.15;92.68;102792.69;6101199;19;20003;-78
2023/04/09 01:02:37;;;;;;;49.95;22.08;;;;;;;6.08;93.09;102790.84;6096283;19;20013;-78
2023/04/09 01:04:45;;;;;;;46.65;22.42;;;;;;;6.04;93.22;102783.88;6098477;19;20019;-78
2023/04/09 01:06:57;;;;;;;47.03;21.48;;;;;;;5.97;92.47;102795.97;6099700;19;20486;-78
2023/04/09 01:09:07;;;;;;;48.72;20.83;;;;;;;5.92;93.85;102792.41;6102628;19;20491;-78
2023/04/09 01:11:24;;;;;;;42.72;20.50;;;;;;;5.85;93.29;102796.72;6100114;19;20018;-78
2023/04/09 01:13:36;;;;;;;50.85;24.30;;;;;;;5.77;93.10;102787.06;6096498;19;20093;-78
2023/04/09 01:15:48;;;;;;;52.47;23.92;;;;;;;5.72;93.54;102789.59;6099123;19;20017;-79
2023/04/09 01:17:58;;;;;;;49.63;22.10;;;;;;;5.71;93.86;102793.97;6101285;19;20010;-77
2023/04/09 01:20:10;;;;;;;54.28;23.27;;;;;;;5.66;93.25;102795.63;6101148;19;20743;-79
2023/04/09 01:22:31;;;;;;;53.83;23.90;;;;;;;5.60;93.19;102795.53;6099074;19;20021;-77
2023/04/09 01:24:46;;;;;;;56.17;23.08;;;;;;;5.60;94.07;102794.69;6101529;19;20031;-77
2023/04/09 01:27:00;;;;;;;58.05;24.20;;;;;;;5.58;94.71;102805.13;6102092;19;20017;-78
2023/04/09 01:29:09;;;;;;;57.95;25.73;;;;;;;5.53;94.25;102803.28;6101894;19;20011;-78
2023/04/09 01:31:20;;;;;;;61.75;24.92;;;;;;;5.55;95.25;102791.13;6102355;19;20126;-78
2023/04/09 01:33:30;;;;;;;52.58;23.13;;;;;;;5.47;94.22;102802.34;6105004;19;20007;-78
2023/04/09 01:35:35;;;;;;;54.63;23.98;;;;;;;5.44;94.64;102802.31;6094180;19;20248;-78
2023/04/09 01:37:42;;;;;;;55.20;26.80;;;;;;;5.45;95.34;102803.19;6103051;19;20562;-77
2023/04/09 01:39:51;;;;;;;51.78;21.52;;;;;;;5.43;93.88;102797.97;6101911;19;20002;-78
2023/04/09 01:41:57;;;;;;;54.92;22.15;;;;;;;5.41;93.74;102804.88;6100231;19;20011;-78
2023/04/09 01:44:04;;;;;;;45.10;21.02;;;;;;;5.39;93.64;102800.50;6102537;19;20491;-77
2023/04/09 01:46:13;;;;;;;44.80;22.17;;;;;;;5.36;93.07;102801.34;6101252;19;20456;-77
2023/04/09 01:48:19;;;;;;;43.55;20.70;;;;;;;5.36;93.18;102805.69;6103939;19;20094;-77
2023/04/09 01:50:25;;;;;;;44.38;19.77;;;;;;;5.32;93.66;102798.66;6105875;19;20011;-78
2023/04/09 01:52:30;;;;;;;48.10;21.15;;;;;;;5.33;93.85;102800.44;6101938;19;20557;-76
2023/04/09 01:54:35;;;;;;;51.22;23.15;;;;;;;5.30;93.92;102797.81;6103376;19;20446;-77
2023/04/09 01:56:45;;;;;;;49.40;22.88;;;;;;;5.28;93.69;102792.56;6104315;19;20024;-78
2023/04/09 01:58:51;;;;;;;46.92;21.50;;;;;;;5.25;94.76;102788.19;6101092;19;20456;-78
2023/04/09 02:01:01;;;;;;;58.80;25.13;;;;;;;5.24;94.94;102791.66;6100844;19;20013;-78
2023/04/09 02:03:12;;;;;;;48.03;22.77;;;;;;;5.21;94.17;102796.84;6099501;19;20011;-78
2023/04/09 02:05:25;;;;;;;50.10;22.17;;;;;;;5.17;94.06;102789.81;6101850;19;20006;-79
2023/04/09 02:07:40;;;;;;;49.13;22.02;;;;;;;5.19;94.41;102801.13;6099169;19;19998;-78
2023/04/09 02:09:51;;;;;;;53.92;21.98;;;;;;;5.19;94.35;102798.53;6105516;19;20120;-78
2023/04/09 02:11:58;;;;;;;56.58;22.88;;;;;;;5.20;94.83;102800.28;6103829;19;20010;-78
2023/04/09 02:14:07;;;;;;;53.17;22.25;;;;;;;5.17;94.65;102792.41;6090479;19;20453;-78
2023/04/09 02:16:15;;;;;;;49.42;22.40;;;;;;;5.17;95.10;102788.94;6106207;19;20496;-78
2023/04/09 02:18:29;;;;;;;57.75;24.50;;;;;;;5.16;94.72;102787.16;6110668;19;20011;-78
2023/04/09 02:20:33;;;;;;;60.90;23.10;;;;;;;5.15;95.02;102782.81;6110826;19;20007;-78
2023/04/09 02:22:40;;;;;;;53.92;24.42;;;;;;;5.22;94.88;102788.16;6113671;19;20259;-78
2023/04/09 02:24:50;;;;;;;55.85;24.27;;;;;;;5.26;95.27;102781.22;6113453;19;20581;-79
2023/04/09 02:26:55;;;;;;;55.17;25.13;;;;;;;5.32;95.73;102781.31;6114297;19;20013;-77
2023/04/09 02:31:42;;;;;;;55.47;22.95;;;;;;;5.32;95.46;102772.59;6098960;19;20545;-71
2023/04/09 02:42:01;;;;;;;50.17;22.73;;;;;;;5.36;95.23;102769.19;5971391;19;20406;-72
2023/04/09 02:44:50;;;;;;;;;;;;;;;;;;;;;
2023/04/09 02:47:06;;;;;;;52.67;23.60;;;;;;;5.36;95.15;102770.06;6092773;19;20002;-72
2023/04/09 02:49:34;;;;;;;50.42;22.58;;;;;;;5.38;95.15;102759.66;6062357;19;20378;-72
2023/04/09 02:52:29;;;;;;;52.75;24.15;;;;;;;5.40;95.28;102766.66;6046708;19;20070;-72
2023/04/09 02:57:43;;;;;;;60.42;25.08;;;;;;;5.40;95.48;102753.63;5990109;19;20488;-71
2023/04/09 03:00:07;;;;;;;60.50;26.05;;;;;;;5.43;95.65;102756.25;6088518;19;20101;-71
2023/04/09 03:05:25;;;;;;;51.65;22.88;;;;;;;5.47;95.34;102751.94;6039760;19;20563;-71
2023/04/09 03:08:00;;;;;;;61.42;25.48;;;;;;;5.52;95.53;102750.25;6013283;19;20022;-71
2023/04/09 03:13:10;;;;;;;63.45;25.75;;;;;;;5.68;95.68;102749.56;6084140;19;20022;-71
2023/04/09 03:16:09;;;;;;;62.08;25.52;;;;;;;5.76;95.48;102748.78;6055488;19;20006;-72
2023/04/09 03:19:12;;;;;;;62.60;23.75;;;;;;;5.84;95.62;102747.09;6050273;19;20424;-71
2023/04/09 03:22:09;;;;;;;63.30;23.92;;;;;;;5.90;95.53;102741.97;6071968;19;20007;-71
2023/04/09 03:24:58;;;;;;;61.50;26.00;;;;;;;5.97;95.59;102738.56;6034048;19;20758;-71
2023/04/09 03:27:34;;;;;;;67.90;26.27;;;;;;;6.05;95.87;102741.25;6088533;19;20010;-71
2023/04/09 03:29:59;;;;;;;73.55;28.38;;;;;;;6.11;95.78;102736.09;6054172;19;20027;-71
2023/04/09 03:32:47;;;;;;;68.60;26.55;;;;;;;6.14;95.90;102730.91;6047348;19;20429;-71
2023/04/09 03:35:16;;;;;;;;;;;;;;;;;;;;;
2023/04/09 03:37:46;;;;;;;73.97;28.13;;;;;;;6.52;96.27;102725.09;6092493;19;20031;-72
2023/04/09 03:40:03;;;;;;;77.70;28.48;;;;;;;6.76;95.59;102722.59;6029752;19;20554;-72
2023/04/09 03:42:41;;;;;;;70.55;28.88;;;;;;;6.86;95.35;102720.94;6065376;19;20010;-72
2023/04/09 03:47:45;;;;;;;;;;;;;;;;;;;;;
2023/04/09 03:53:38;;;;;;;75.57;27.38;;;;;;;7.32;93.40;102723.75;6035816;19;20018;-71
2023/04/09 03:56:23;;;;;;;82.00;29.65;;;;;;;7.36;93.37;102719.41;6083553;19;20386;-72
2023/04/09 04:02:32;;;;;;;71.68;28.23;;;;;;;7.46;92.98;102722.03;6061637;19;20020;-72
2023/04/09 04:04:47;;;;;;;75.93;27.27;;;;;;;7.53;92.83;102722.03;6091931;19;20011;-71
2023/04/09 04:09:51;;;;;;;82.50;30.77;;;;;;;7.58;92.44;102721.22;6063727;19;20014;-71
2023/04/09 04:12:23;;;;;;;75.28;26.60;;;;;;;7.56;92.37;102722.06;6063830;19;20459;-71
2023/04/09 04:18:04;;;;;;;85.35;29.30;;;;;;;7.63;92.25;102713.34;6001119;19;20444;-71
2023/04/09 04:20:43;;;;;;;73.28;28.80;;;;;;;7.62;92.16;102715.09;6062511;19;20011;-71
2023/04/09 04:23:23;;;;;;;81.82;29.23;;;;;;;7.68;91.82;102709.00;6077609;19;20038;-71
2023/04/09 04:26:13;;;;;;;;;;;;;;;;;;;;;
2023/04/09 04:28:48;;;;;;;73.00;28.80;;;;;;;7.75;91.51;102708.13;5993223;19;20090;-71
2023/04/09 04:31:29;;;;;;;;;;;;;;;;;;;;;
2023/04/09 04:36:20;;;;;;;;;;;;;;;7.77;91.34;102711.63;6064274;19;20007;-71
2023/04/09 04:38:35;;;;;;;81.03;27.70;;;;;;;7.89;90.91;102709.00;6048780;19;19911;-71
2023/04/09 04:49:58;;;;;;;81.38;29.92;;;;;;;8.07;89.15;102707.28;6091578;19;20039;-70
2023/04/09 04:52:39;;;;;;;82.18;32.17;;;;;;;8.07;89.26;102710.78;6021198;19;20046;-72
2023/04/09 04:55:17;;;;;;;72.55;27.02;;;;;;;8.01;89.39;102712.53;6050864;19;20045;-71
2023/04/09 04:57:42;;;;;;;85.38;31.50;;;;;;;7.97;89.80;102723.84;6020913;19;20011;-71
2023/04/09 05:03:07;;;;;;;67.93;26.83;;;;;;;7.94;89.77;102732.59;6047266;19;20510;-72
2023/04/09 05:05:44;;;;;;;69.78;25.48;;;;;;;7.91;90.51;102738.69;6060427;19;20017;-71
2023/04/09 05:10:54;;;;;;;62.17;26.00;;;;;;;7.90;90.56;102736.94;6077224;19;20430;-71
2023/04/09 05:13:18;;;;;;;;;;;;;;;7.89;90.55;102735.19;6027833;19;20100;-71
2023/04/09 05:16:06;;;;;;;69.45;26.92;;;;;;;7.91;90.43;102732.59;6066488;19;19911;-71
2023/04/09 05:18:41;;;;;;;67.65;26.83;;;;;;;7.89;90.61;102732.56;6046209;19;20007;-71
2023/04/09 05:24:38;;;;;;;74.38;25.98;;;;;;;7.93;90.53;102724.75;6047842;19;20021;-72
2023/04/09 05:38:39;;;;;;;66.20;27.20;;;;;;;8.15;89.66;102729.09;6088390;19;20893;-72
2023/04/09 05:41:37;;;;;;;;;;;;;;;;;;;;;
2023/04/09 05:44:06;;;;;;;63.95;27.65;;;;;;;8.20;89.23;102732.59;6031705;19;20038;-72
2023/04/09 05:49:40;;;;;;;66.03;26.52;;;;;;;8.28;88.98;102727.34;6005675;19;20583;-71
2023/04/09 05:52:39;;;;;;;55.95;24.20;;;;;;;8.32;88.55;102729.09;6061552;19;20416;-71
2023/04/09 05:55:05;;;;;;;60.60;24.30;;;;;;;8.33;88.69;102734.34;6082521;19;20314;-72
2023/04/09 05:57:51;;;;;;;65.68;24.92;;;;;;;8.36;88.50;102731.72;6063806;19;20035;-72
2023/04/09 06:06:13;;;;;;;57.45;25.08;;;;;;;8.43;88.26;102731.75;6016993;19;20765;-72
2023/04/09 06:08:53;;;;;;;58.20;23.88;;;;;;;8.40;88.18;102734.34;6039572;19;20360;-72
2023/04/09 06:17:07;;;;;;;51.58;23.50;;;;;;;8.50;87.85;102734.34;6046228;19;20010;-72
2023/04/09 06:25:36;;;;;;;59.33;25.02;;;;;;;8.57;88.04;102735.22;6093506;19;20569;-72
2023/04/09 06:27:46;;;;;;;59.30;24.15;;;;;;;8.61;87.40;102729.09;6101696;19;20007;-78
2023/04/09 06:29:51;;;;;;;60.45;24.48;;;;;;;8.61;87.17;102736.97;6099456;19;20006;-78
2023/04/09 06:31:56;;;;;;;56.25;24.38;;;;;;;8.64;87.29;102736.94;6103364;19;20024;-78
2023/04/09 06:34:01;;;;;;;61.30;25.05;;;;;;;8.66;87.03;102743.06;6102385;19;20069;-78
2023/04/09 06:36:09;;;;;;;61.33;25.05;;;;;;;8.70;86.65;102742.16;6101420;19;20002;-78
2023/04/09 06:38:17;;;;;;;60.58;24.88;;;;;;;8.68;86.91;102746.53;6096996;19;20035;-78
2023/04/09 06:40:25;;;;;;;59.78;24.90;;;;;;;8.70;86.95;102743.94;6102242;19;20014;-78
2023/04/09 06:42:30;;;;;;;54.92;24.02;;;;;;;8.78;86.88;102752.66;6102584;19;20006;-78
2023/04/09 06:44:35;;;;;;;66.45;26.90;;;;;;;8.70;86.97;102750.03;6101006;19;20023;-78
2023/04/09 06:46:40;;;;;;;58.35;22.48;;;;;;;8.70;87.21;102749.16;6101825;19;20396;-78
2023/04/09 06:52:06;;;;;;;55.28;23.80;;;;;;;8.80;87.06;102745.66;6039403;19;20018;-72
2023/04/09 06:54:46;;;;;;;;;;;;;;;;;;;;;
2023/04/09 06:57:32;;;;;;;62.42;24.90;;;;;;;8.80;86.95;102748.28;6059186;19;20487;-72
2023/04/09 07:00:27;;;;;;;60.78;24.80;;;;;;;8.86;86.74;102744.75;5965757;19;20014;-72
2023/04/09 07:02:46;;;;;;;58.33;24.15;;;;;;;8.82;87.20;102748.25;6100355;19;20007;-77
2023/04/09 07:04:52;;;;;;;68.00;28.30;;;;;;;8.87;86.33;102749.13;6096405;19;20054;-77
2023/04/09 07:06:58;;;;;;;61.70;27.02;;;;;;;8.92;86.53;102744.72;6101977;19;20002;-78
2023/04/09 07:09:03;;;;;;;69.20;24.88;;;;;;;8.96;85.99;102744.72;6099869;19;20422;-79
2023/04/09 07:11:10;;;;;;;68.55;25.80;;;;;;;8.94;86.35;102742.97;6099851;19;20022;-79
2023/04/09 07:13:22;;;;;;;70.80;27.75;;;;;;;8.95;86.46;102742.09;6102376;19;20007;-78
2023/04/09 07:15:30;;;;;;;65.47;26.92;;;;;;;8.96;86.15;102741.25;6083217;19;20094;-78
2023/04/09 07:17:35;;;;;;;63.95;27.08;;;;;;;8.96;86.09;102742.09;6106047;19;20009;-78
2023/04/09 07:19:41;;;;;;;67.43;26.10;;;;;;;8.97;86.37;102740.34;6104246;19;20002;-78
2023/04/09 07:21:47;;;;;;;71.50;30.13;;;;;;;8.96;86.40;102741.25;6105624;19;20640;-77
2023/04/09 07:23:53;;;;;;;92.53;30.88;;;;;;;9.07;85.15;102743.81;6105158;19;20019;-78
2023/04/09 07:25:59;;;;;;;80.72;29.20;;;;;;;9.08;84.80;102746.41;6105249;19;20035;-80
2023/04/09 07:28:05;;;;;;;83.13;29.50;;;;;;;9.08;84.52;102743.78;6099597;19;20385;-78
2023/04/09 07:30:13;;;;;;;80.85;28.00;;;;;;;9.10;84.45;102744.66;6104898;19;20067;-77
2023/04/09 07:32:21;;;;;;;84.65;28.45;;;;;;;9.13;84.31;102749.03;6104150;19;20031;-77
2023/04/09 07:34:26;;;;;;;87.15;30.48;;;;;;;9.16;84.34;102747.28;6106977;19;20010;-78
2023/04/09 07:36:31;;;;;;;88.93;32.30;;;;;;;9.08;83.93;102746.41;6106271;19;20014;-79
2023/04/09 07:38:36;;;;;;;78.88;29.27;;;;;;;9.17;83.91;102742.91;6106662;19;20010;-78
2023/04/09 07:40:42;;;;;;;91.05;31.95;;;;;;;9.10;83.76;102746.44;6103977;19;20007;-78
2023/04/09 07:42:50;;;;;;;85.43;30.02;;;;;;;9.20;83.44;102743.75;6106622;19;20427;-78
2023/04/09 07:44:55;;;;;;;89.70;32.55;;;;;;;9.16;82.85;102746.41;6106340;19;20019;-78
2023/04/09 07:47:18;;;;;;;96.72;33.00;;;;;;;9.11;82.96;102746.44;6104500;19;20014;-73
2023/04/09 07:52:48;;;;;;;88.68;29.85;;;;;;;9.17;83.25;102746.41;6022639;19;20435;-72
2023/04/09 07:58:23;;;;;;;101.50;32.83;;;;;;;9.21;82.88;102750.75;6026511;19;20655;-71
2023/04/09 08:00:36;;;;;;;86.43;31.40;;;;;;;9.27;83.04;102742.00;6072465;19;20010;-71
2023/04/09 08:03:12;;;;;;;96.43;30.38;;;;;;;9.27;82.29;102739.38;6030328;19;20041;-71
2023/04/09 08:08:40;;;;;;;98.03;31.50;;;;;;;9.18;82.46;102745.50;5997110;19;20415;-71
2023/04/09 08:11:39;;;;;;;96.38;35.10;;;;;;;9.22;81.89;102743.78;6056568;19;20337;-71
2023/04/09 08:14:12;;;;;;;79.57;28.92;;;;;;;9.22;81.57;102744.63;6058315;19;20017;-71
2023/04/09 08:19:29;;;;;;;;;;;;;;;;;;;;;
2023/04/09 08:22:17;;;;;;;98.75;31.45;;;;;;;9.16;81.92;102747.28;6070007;19;20508;-73
2023/04/09 08:25:27;;;;;;;87.45;32.58;;;;;;;9.18;81.87;102752.50;6019990;19;20022;-71
2023/04/09 08:30:50;;;;;;;94.88;30.33;;;;;;;9.16;81.50;102749.00;6064674;19;20017;-72
2023/04/09 08:33:14;;;;;;;81.95;30.67;;;;;;;9.20;81.58;102750.75;6081693;19;20014;-71
2023/04/09 08:35:50;;;;;;;97.45;30.77;;;;;;;9.11;81.65;102759.56;6064537;19;20438;-71
2023/04/09 08:41:31;;;;;;;82.10;28.88;;;;;;;9.14;81.28;102762.16;6065218;19;20343;-70
2023/04/09 08:43:49;;;;;;;87.68;30.38;;;;;;;9.19;81.88;102759.53;6073407;19;20739;-69
2023/04/09 08:46:06;;;;;;;87.53;29.45;;;;;;;9.23;81.95;102759.47;6094317;19;20048;-72
2023/04/09 08:48:15;;;;;;;93.47;32.05;;;;;;;9.29;81.39;102755.97;6095613;19;20033;-72
2023/04/09 08:50:21;;;;;;;96.07;32.47;;;;;;;9.30;81.20;102759.47;6095136;19;20410;-79
2023/04/09 08:52:35;;;;;;;85.13;33.53;;;;;;;9.31;81.28;102758.59;6097077;19;20150;-81
2023/04/09 08:54:43;;;;;;;87.68;32.63;;;;;;;9.28;81.49;102764.72;6101012;19;20011;-80
2023/04/09 08:56:51;;;;;;;89.60;32.05;;;;;;;9.27;82.07;102754.22;6100173;19;20015;-81
2023/04/09 08:58:57;;;;;;;89.63;33.53;;;;;;;9.33;80.96;102756.84;6096744;19;20070;-77
2023/04/09 09:01:03;;;;;;;89.53;31.98;;;;;;;9.31;81.54;102751.59;6090813;19;20375;-77
2023/04/09 09:03:13;;;;;;;85.10;32.92;;;;;;;9.30;80.83;102752.47;6095005;19;20106;-76
2023/04/09 09:05:19;;;;;;;91.32;32.75;;;;;;;9.28;81.04;102750.72;6096304;19;20011;-77
2023/04/09 09:07:24;;;;;;;91.72;33.72;;;;;;;9.32;81.29;102752.44;6096946;19;20372;-76
2023/04/09 09:09:32;;;;;;;88.28;31.45;;;;;;;9.28;80.92;102751.59;6093416;19;20006;-75
2023/04/09 09:11:38;;;;;;;93.93;34.05;;;;;;;9.31;81.07;102755.97;6090959;19;20007;-76
2023/04/09 09:14:09;;;;;;;98.03;36.17;;;;;;;9.34;81.31;102758.56;6062821;19;20038;-71
2023/04/09 09:16:28;;;;;;;93.47;33.17;;;;;;;9.35;81.39;102761.19;6093432;19;20011;-69
2023/04/09 09:18:45;;;;;;;83.85;31.45;;;;;;;9.34;81.00;102754.19;6061516;19;20019;-70
2023/04/09 09:23:52;;;;;;;80.63;30.00;;;;;;;9.38;80.61;102755.06;6053492;19;20011;-72
2023/04/09 09:26:15;;;;;;;87.82;29.95;;;;;;;9.39;80.32;102752.41;6096546;19;20018;-80
2023/04/09 09:28:21;;;;;;;93.25;30.65;;;;;;;9.38;80.27;102749.81;6098152;19;20010;-77
2023/04/09 09:30:28;;;;;;;82.97;29.75;;;;;;;9.40;80.15;102743.69;6097158;19;20003;-78
2023/04/09 09:32:33;;;;;;;96.68;33.30;;;;;;;9.49;80.37;102742.75;6103397;19;20006;-77
2023/04/09 09:34:38;;;;;;;101.65;36.30;;;;;;;9.45;80.31;102741.00;6097598;19;20013;-79
2023/04/09 09:36:44;;;;;;;101.63;36.05;;;;;;;9.47;80.94;102744.50;6100702;19;20455;-76
2023/04/09 09:38:56;;;;;;;100.03;36.55;;;;;;;9.52;80.48;102737.47;6097843;19;20007;-76
2023/04/09 09:41:21;;;;;;;112.20;38.67;;;;;;;9.56;80.08;102741.84;6097422;19;20070;-75
2023/04/09 09:43:27;;;;;;;100.18;33.72;;;;;;;9.64;79.72;102737.41;6102024;19;20086;-76
2023/04/09 09:45:32;;;;;;;96.57;36.75;;;;;;;9.66;79.71;102729.50;6098064;19;20006;-75
2023/04/09 09:47:38;;;;;;;104.97;37.08;;;;;;;9.73;80.18;102730.34;6102515;19;20423;-77
2023/04/09 09:49:43;;;;;;;106.35;36.80;;;;;;;9.78;79.67;102734.69;6099495;19;20007;-76
2023/04/09 09:51:51;;;;;;;98.95;33.97;;;;;;;9.71;79.30;102730.34;6102066;19;20010;-78
2023/04/09 09:53:58;;;;;;;98.18;36.20;;;;;;;9.77;78.89;102727.72;6095992;19;20015;-78
2023/04/09 09:56:06;;;;;;;106.28;37.63;;;;;;;9.81;78.80;102725.94;6099635;19;20010;-77
2023/04/09 09:58:26;;;;;;;97.95;34.42;;;;;;;9.91;78.39;102722.34;6102939;19;20007;-79
2023/04/09 10:00:34;;;;;;;100.30;34.10;;;;;;;9.96;77.85;102723.19;6104650;19;20373;-81
2023/04/09 10:03:09;;;;;;;95.30;32.22;;;;;;;9.99;76.90;102720.53;6102716;19;20026;-74
2023/04/09 10:05:35;;;;;;;102.68;34.28;;;;;;;10.04;76.95;102712.63;6098578;19;20011;-79
2023/04/09 10:07:40;;;;;;;98.40;31.92;;;;;;;10.16;76.68;102709.88;6102778;19;20314;-77
2023/04/09 10:10:00;;;;;;;103.72;32.85;;;;;;;10.31;76.33;102707.16;6108139;19;20024;-72
2023/04/09 10:12:40;;;;;;;100.78;36.42;;;;;;;10.38;76.17;102707.97;6068687;19;20011;-72
2023/04/09 10:14:57;;;;;;;97.45;34.42;;;;;;;10.51;75.92;102708.72;6060557;19;20090;-78
2023/04/09 10:17:11;;;;;;;97.70;32.45;;;;;;;10.54;75.23;102711.31;6102204;19;20495;-73
2023/04/09 10:19:22;;;;;;;99.28;36.05;;;;;;;10.60;75.35;102710.38;6101811;19;20033;-71
2023/04/09 10:24:10;;;;;;;100.95;35.15;;;;;;;10.69;74.56;102703.28;6094928;19;20018;-78
2023/04/09 10:26:16;;;;;;;93.93;31.08;;;;;;;10.78;74.79;102699.66;6103013;19;20014;-79
2023/04/09 10:28:57;;;;;;;100.28;35.17;;;;;;;10.91;74.21;102696.00;6097383;19;20011;-71
2023/04/09 10:31:46;;;;;;;104.03;36.42;;;;;;;11.01;73.53;102690.63;6108042;19;20046;-71
2023/04/09 10:33:52;;;;;;;101.22;35.13;;;;;;;11.22;72.59;102685.09;6104583;19;20015;-78
2023/04/09 10:36:21;;;;;;;101.32;33.85;;;;;;;11.46;72.87;102680.38;6093667;19;20010;-71
2023/04/09 10:38:49;;;;;;;97.28;34.17;;;;;;;11.62;71.89;102673.97;6082398;19;20475;-72
2023/04/09 10:40:58;;;;;;;98.47;32.95;;;;;;;11.80;70.61;102673.69;6079746;19;20007;-80
2023/04/09 10:43:04;;;;;;;87.55;35.03;;;;;;;11.89;70.05;102674.44;6104232;19;20006;-80
2023/04/09 10:45:25;;;;;;;;;;;;;;;;;;;;;
2023/04/09 10:48:05;;;;;;;86.50;32.20;;;;;;;12.16;69.82;102659.91;6078926;19;20018;-81
2023/04/09 10:50:20;;;;;;;95.25;35.00;;;;;;;11.89;69.02;102671.81;6039354;19;20569;-79
2023/04/09 10:52:33;;;;;;;97.07;33.97;;;;;;;11.94;69.93;102659.44;6036514;19;20031;-80
2023/04/09 10:55:27;;;;;;;;;;;;;;;;;;;;;
2023/04/09 11:16:59;;;;;;;88.88;36.08;;;;;;;13.36;65.33;102630.19;6005267;19;20015;-74
2023/04/09 11:19:06;;;;;;;84.93;33.05;;;;;;;13.48;64.41;102630.81;6102252;19;20449;-80
2023/04/09 11:22:03;;;;;;;79.65;32.03;;;;;;;13.57;63.59;102620.03;6041224;19;20412;-74
2023/04/09 11:24:09;;;;;;;79.30;32.15;;;;;;;14.17;62.72;102631.72;6100546;19;20006;-81
2023/04/09 11:26:15;;;;;;;78.78;33.50;;;;;;;14.24;61.85;102625.34;6107259;19;20423;-79
2023/04/09 11:28:22;;;;;;;80.93;34.35;;;;;;;13.98;61.92;102626.91;6105583;19;20020;-81
2023/04/09 11:43:03;;;;;;;81.50;33.87;;;;;;;15.39;58.18;102610.50;6080475;19;20018;-84
2023/04/09 11:49:20;;;;;;;68.75;31.40;;;;;;;15.13;58.85;102618.34;6077329;19;20075;-73
2023/04/09 11:51:30;;;;;;;80.90;33.25;;;;;;;15.31;58.66;102614.25;6106150;19;20142;-83
2023/04/09 11:53:57;;;;;;;75.05;33.15;;;;;;;15.22;57.70;102603.06;6019820;19;20556;-75
2023/04/09 11:56:02;;;;;;;81.40;36.30;;;;;;;14.87;58.87;102603.25;6097428;19;20010;-81
2023/04/09 11:58:12;;;;;;;81.25;34.72;;;;;;;15.03;59.03;102598.34;6106393;19;20014;-80
2023/04/09 12:00:37;;;;;;;;;;;;;;;15.18;58.55;102604.09;6106747;19;20027;-74
2023/04/09 12:03:18;;;;;;;68.05;32.55;;;;;;;15.36;58.17;102598.22;6103438;19;20004;-75
2023/04/09 12:05:30;;;;;;;78.32;35.78;;;;;;;15.37;58.03;102597.28;6105712;19;20023;-79
2023/04/09 12:07:36;;;;;;;83.15;36.22;;;;;;;15.01;57.79;102601.97;6057928;19;20047;-80
2023/04/09 12:09:49;;;;;;;72.10;33.38;;;;;;;15.06;57.28;102600.94;6098493;19;20031;-84
2023/04/09 12:11:56;;;;;;;73.00;35.83;;;;;;;15.43;57.65;102601.50;6103508;19;20400;-83
2023/04/09 12:14:16;;;;;;;80.88;35.05;;;;;;;15.14;57.96;102592.75;6106075;19;20051;-75
2023/04/09 12:19:31;;;;;;;83.32;35.45;;;;;;;15.45;57.69;102586.44;6060057;19;20467;-81
2023/04/09 12:21:54;;;;;;;80.88;36.97;;;;;;;15.28;57.86;102587.00;6102178;19;20044;-83
2023/04/09 12:23:59;;;;;;;;;;;;;;;14.96;59.74;102590.69;6101752;19;20010;-84
2023/04/09 12:26:10;;;;;;;82.35;35.53;;;;;;;14.99;58.63;102585.28;6079335;19;19915;-83
2023/04/09 12:28:20;;;;;;;76.00;33.40;;;;;;;15.53;58.56;102585.28;6102291;19;20439;-82
2023/04/09 12:46:54;;;;;;;67.50;31.77;;;;;;;15.66;55.51;102592.81;6065484;19;20006;-75
2023/04/09 12:54:08;;;;;;;65.90;30.25;;;;;;;15.22;55.91;102581.88;6035388;19;20554;-74
2023/04/09 13:21:13;;;;;;;56.25;28.33;;;;;;;16.01;54.16;102563.34;6128914;19;20034;-81
2023/04/09 13:23:21;;;;;;;62.33;28.35;;;;;;;16.02;54.22;102565.06;6129351;19;20032;-83
2023/04/09 13:32:17;;;;;;;65.32;29.15;;;;;;;16.37;53.71;102548.75;6047210;19;21163;-73
2023/04/09 13:35:00;;;;;;;;;;;;;;;;;;;;;
2023/04/09 13:37:40;;;;;;;56.60;25.30;;;;;;;17.22;51.42;102535.69;6115335;19;20545;-73
2023/04/09 13:39:51;;;;;;;59.55;26.75;;;;;;;17.18;49.66;102529.66;6124416;19;20010;-73
2023/04/09 13:42:01;;;;;;;54.65;27.50;;;;;;;16.98;51.13;102529.59;6116451;19;20023;-75
2023/04/09 13:44:21;;;;;;;55.63;27.08;;;;;;;17.00;50.66;102528.63;6124444;19;20082;-73
2023/04/09 13:46:28;;;;;;;55.35;26.67;;;;;;;16.81;51.85;102527.63;6132783;19;20529;-82
2023/04/09 13:48:33;;;;;;;54.80;26.77;;;;;;;16.51;51.13;102530.53;6125776;19;20014;-82
2023/04/09 13:50:39;;;;;;;55.10;26.58;;;;;;;16.73;51.43;102525.25;6126247;19;20033;-83
2023/04/09 13:52:49;;;;;;;48.40;26.17;;;;;;;16.91;50.50;102514.88;6108747;19;20019;-74
2023/04/09 13:54:55;;;;;;;52.95;25.25;;;;;;;16.94;48.89;102518.25;6075346;19;20383;-74
2023/04/09 13:57:00;;;;;;;52.22;24.85;;;;;;;16.95;50.81;102514.66;6101149;19;20029;-83
2023/04/09 13:59:10;;;;;;;59.90;27.67;;;;;;;16.52;51.21;102519.00;6110292;19;20112;-82
2023/04/09 14:01:21;;;;;;;58.03;26.92;;;;;;;16.29;51.81;102519.00;6109777;19;20749;-81
2023/04/09 14:03:29;;;;;;;47.33;25.98;;;;;;;16.17;51.08;102513.25;6099916;19;20078;-82
2023/04/09 14:05:34;;;;;;;57.33;28.00;;;;;;;16.42;50.15;102507.84;6084916;19;20010;-75
2023/04/09 14:07:43;;;;;;;52.83;25.58;;;;;;;16.79;50.67;102506.44;6079900;19;20533;-75
2023/04/09 14:09:55;;;;;;;52.35;25.77;;;;;;;16.56;51.50;102501.16;6094051;19;20030;-81